Terminal Aerodrome Forecast
Issued by NWS Jackson, MS

Home | Current Version | Previous Version | Text Only | Print | Product List | Glossary On
Versions: 1 2 3 4 5 6 7 8 9 10 11 12 13 14
618
FTUS44 KJAN 251724
TAFGWO
TAF
KGWO 251724Z 2518/2618 33009G17KT P6SM SKC
     FM252300 VRB05KT P6SM SKC
     FM261500 11009KT P6SM FEW250=

USA.gov is the U.S. government's official web portal to all federal, state and local government web resources and services.